createdAt,value
2022-10-13T00:00:42.278Z,6.72
2022-10-13T00:03:09.013Z,6.70
2022-10-13T00:05:35.576Z,6.68
2022-10-13T00:08:02.037Z,6.66
2022-10-13T00:10:28.602Z,6.58
2022-10-13T00:12:55.144Z,6.57
2022-10-13T00:15:21.708Z,6.49
2022-10-13T00:17:48.261Z,6.43
2022-10-13T00:20:14.762Z,6.42
2022-10-13T00:22:41.193Z,6.38
2022-10-13T00:25:07.890Z,6.41
2022-10-13T00:27:34.489Z,6.55
2022-10-13T00:30:00.935Z,6.43
2022-10-13T00:32:27.438Z,6.38
2022-10-13T00:34:54.034Z,6.32
2022-10-13T00:37:20.431Z,6.35
2022-10-13T00:39:47.402Z,6.30
2022-10-13T00:42:14.200Z,6.24
2022-10-13T00:45:00.600Z,6.17
2022-10-13T00:47:29.070Z,6.13
2022-10-13T00:49:56.015Z,6.12
2022-10-13T00:52:23.655Z,6.07
2022-10-13T00:54:50.745Z,6.03
2022-10-13T00:57:18.351Z,5.99
2022-10-13T00:59:44.849Z,5.96
2022-10-13T01:02:11.331Z,5.92
2022-10-13T01:04:40.269Z,5.87
2022-10-13T01:07:06.703Z,5.86
2022-10-13T01:09:37.747Z,5.80
2022-10-13T01:12:25.908Z,5.82
2022-10-13T01:15:02.698Z,5.79
2022-10-13T01:17:48.905Z,5.75
2022-10-13T01:20:32.787Z,5.74
2022-10-13T01:23:53.153Z,5.73
2022-10-13T01:26:41.365Z,5.69
2022-10-13T01:29:41.235Z,5.72
2022-10-13T01:32:13.917Z,5.75
2022-10-13T01:34:48.120Z,5.71
2022-10-13T01:37:22.292Z,5.66
2022-10-13T01:40:14.343Z,5.60
2022-10-13T01:42:50.113Z,5.58
2022-10-13T01:45:19.681Z,5.56
2022-10-13T01:47:47.029Z,5.53
2022-10-13T01:50:14.989Z,5.47
2022-10-13T01:52:42.704Z,5.43
2022-10-13T01:55:12.018Z,5.40
2022-10-13T01:57:44.535Z,5.41
2022-10-13T02:00:19.524Z,5.48
2022-10-13T02:03:20.813Z,5.46
2022-10-13T02:05:53.758Z,5.43
2022-10-13T02:11:32.650Z,5.39
2022-10-13T02:17:10.360Z,5.45
2022-10-13T02:19:38.241Z,5.48
2022-10-13T02:22:06.287Z,5.54
2022-10-13T02:24:33.092Z,5.52
2022-10-13T02:26:59.556Z,5.50
2022-10-13T02:29:26.147Z,5.50
2022-10-13T02:31:54.808Z,5.47
2022-10-13T02:34:21.336Z,5.54
2022-10-13T02:36:47.923Z,5.57
2022-10-13T02:39:14.523Z,5.54
2022-10-13T02:41:40.999Z,5.54
2022-10-13T02:44:07.505Z,5.53
2022-10-13T02:46:34.347Z,5.53
2022-10-13T02:49:00.937Z,5.55
2022-10-13T02:51:27.438Z,5.57
2022-10-13T02:53:54.014Z,5.49
2022-10-13T02:56:20.554Z,5.45
2022-10-13T02:58:46.988Z,5.40
2022-10-13T03:01:14.959Z,5.37
2022-10-13T03:03:41.552Z,5.40
2022-10-13T03:06:08.168Z,5.35
2022-10-13T03:08:35.321Z,5.35
2022-10-13T03:11:02.033Z,5.34
2022-10-13T03:13:28.505Z,5.33
2022-10-13T03:15:54.997Z,5.32
2022-10-13T03:18:21.496Z,5.30
2022-10-13T03:21:02.153Z,5.25
2022-10-13T03:23:28.921Z,5.22
2022-10-13T03:25:55.970Z,5.18
2022-10-13T03:28:22.787Z,5.15
2022-10-13T03:30:49.258Z,5.09
2022-10-13T03:33:15.940Z,5.11
2022-10-13T03:35:42.445Z,5.14
2022-10-13T03:38:08.874Z,5.13
2022-10-13T03:40:36.407Z,5.16
2022-10-13T03:43:02.853Z,5.08
2022-10-13T03:45:31.905Z,5.11
2022-10-13T03:47:58.757Z,5.11
2022-10-13T03:50:25.251Z,5.05
2022-10-13T03:52:51.739Z,5.14
2022-10-13T03:55:18.229Z,5.17
2022-10-13T03:57:44.789Z,5.19
2022-10-13T04:00:12.066Z,5.20
2022-10-13T04:02:38.507Z,5.21
2022-10-13T04:05:05.302Z,5.18
2022-10-13T04:07:32.278Z,5.20
2022-10-13T04:09:58.681Z,5.22
2022-10-13T04:12:25.536Z,5.20
2022-10-13T04:14:52.147Z,5.19
2022-10-13T04:17:18.670Z,5.08
2022-10-13T04:19:45.193Z,5.10
2022-10-13T04:22:11.669Z,5.04
2022-10-13T04:24:38.132Z,5.09
2022-10-13T04:27:04.600Z,5.05
2022-10-13T04:29:32.079Z,5.07
2022-10-13T04:32:01.362Z,5.07
2022-10-13T04:34:27.930Z,5.07
2022-10-13T04:36:54.347Z,5.08
2022-10-13T04:39:20.836Z,5.12
2022-10-13T04:41:47.386Z,5.08
2022-10-13T04:44:13.797Z,5.09
2022-10-13T04:46:40.253Z,5.12
2022-10-13T04:49:06.836Z,5.13
2022-10-13T04:51:33.340Z,5.13
2022-10-13T04:54:05.516Z,5.08
2022-10-13T04:56:32.503Z,5.08
2022-10-13T04:58:59.892Z,5.12
2022-10-13T05:01:26.922Z,5.10
2022-10-13T05:03:54.920Z,5.09
2022-10-13T05:06:27.058Z,5.10
2022-10-13T05:08:53.879Z,5.10
2022-10-13T05:11:20.778Z,5.11
2022-10-13T05:13:48.490Z,5.11
2022-10-13T05:16:17.184Z,5.19
2022-10-13T05:18:43.781Z,5.18
2022-10-13T05:21:12.617Z,5.25
2022-10-13T05:23:40.245Z,5.24
2022-10-13T05:26:11.466Z,5.34
2022-10-13T05:28:38.443Z,5.38
2022-10-13T05:31:11.679Z,5.41
2022-10-13T05:33:38.468Z,5.40
2022-10-13T05:36:11.493Z,5.44
2022-10-13T05:38:38.781Z,5.54
2022-10-13T05:41:13.194Z,5.60
2022-10-13T05:43:40.577Z,5.58
2022-10-13T05:46:08.115Z,5.65
2022-10-13T05:48:35.276Z,5.70
2022-10-13T05:51:04.738Z,5.80
2022-10-13T05:53:34.343Z,5.86
2022-10-13T05:56:06.271Z,5.94
2022-10-13T05:58:38.791Z,5.99
2022-10-13T06:01:10.818Z,6.11
2022-10-13T06:03:38.190Z,6.22
2022-10-13T06:06:04.921Z,6.26
2022-10-13T06:08:32.083Z,6.33
2022-10-13T06:10:58.583Z,6.41
2022-10-13T06:13:25.034Z,6.48
2022-10-13T06:15:51.798Z,6.57
2022-10-13T06:18:18.267Z,6.67
2022-10-13T06:20:44.793Z,6.74
2022-10-13T06:23:11.461Z,6.91
2022-10-13T06:25:38.202Z,6.95
2022-10-13T06:28:04.773Z,7.13
2022-10-13T06:30:32.292Z,7.35
2022-10-13T06:32:58.820Z,7.51
2022-10-13T06:35:25.472Z,7.51
2022-10-13T06:37:53.367Z,7.56
2022-10-13T06:40:19.918Z,7.61
2022-10-13T06:42:50.172Z,7.71
2022-10-13T06:45:17.639Z,7.78
2022-10-13T06:47:44.111Z,7.80
2022-10-13T06:50:10.919Z,7.95
2022-10-13T06:52:37.776Z,8.02
2022-10-13T06:55:05.296Z,8.10
2022-10-13T06:57:32.628Z,8.24
2022-10-13T06:59:59.529Z,8.35
2022-10-13T07:02:26.084Z,8.46
2022-10-13T07:04:52.587Z,8.63
2022-10-13T07:07:19.590Z,8.71
2022-10-13T07:09:46.246Z,8.80
2022-10-13T07:12:14.158Z,8.92
2022-10-13T07:14:43.714Z,8.97
2022-10-13T07:17:10.841Z,9.04
2022-10-13T07:19:37.350Z,9.21
2022-10-13T07:22:04.160Z,9.26
2022-10-13T07:24:33.004Z,9.38
2022-10-13T07:27:03.909Z,9.80
2022-10-13T07:29:36.731Z,10.77
2022-10-13T07:32:03.549Z,12.92
2022-10-13T07:34:30.000Z,17.04
2022-10-13T07:36:57.128Z,19.91
2022-10-13T07:39:23.853Z,22.12
2022-10-13T07:41:51.498Z,24.36
2022-10-13T07:44:18.861Z,26.56
2022-10-13T07:46:53.434Z,27.67
2022-10-13T07:49:20.716Z,27.85
2022-10-13T07:51:50.559Z,28.08
2022-10-13T07:54:21.578Z,28.61
2022-10-13T07:56:57.091Z,29.69
2022-10-13T07:59:26.502Z,31.16
2022-10-13T08:01:53.503Z,29.03
2022-10-13T08:04:20.291Z,29.84
2022-10-13T08:06:50.224Z,28.85
2022-10-13T08:09:16.798Z,28.60
2022-10-13T08:11:43.345Z,29.12
2022-10-13T08:14:11.900Z,28.06
2022-10-13T08:16:40.086Z,26.92
2022-10-13T08:19:06.738Z,27.28
2022-10-13T08:21:57.598Z,26.73
2022-10-13T08:24:22.248Z,27.05
2022-10-13T08:26:53.396Z,26.95
2022-10-13T08:29:22.593Z,26.97
2022-10-13T08:31:51.681Z,27.98
2022-10-13T08:34:18.750Z,27.73
2022-10-13T08:36:47.782Z,27.04
2022-10-13T08:39:14.652Z,27.83
2022-10-13T08:41:46.594Z,27.75
2022-10-13T08:44:59.174Z,26.51
2022-10-13T08:47:27.200Z,25.32
2022-10-13T08:50:00.297Z,22.45
2022-10-13T08:52:29.693Z,19.19
2022-10-13T08:54:57.275Z,17.80
2022-10-13T08:57:24.053Z,17.11
2022-10-13T08:59:52.795Z,16.94
2022-10-13T09:02:27.233Z,16.91
2022-10-13T09:04:54.097Z,16.96
2022-10-13T09:07:24.900Z,16.75
2022-10-13T09:09:52.893Z,16.78
2022-10-13T09:12:24.477Z,16.95
2022-10-13T09:15:11.954Z,16.64
2022-10-13T09:17:41.055Z,16.44
2022-10-13T09:20:23.133Z,16.33
2022-10-13T09:23:01.447Z,16.31
2022-10-13T09:25:28.156Z,16.30
2022-10-13T09:27:58.060Z,16.29
2022-10-13T09:30:25.618Z,15.82
2022-10-13T09:33:06.418Z,15.57
2022-10-13T09:35:35.013Z,15.81
2022-10-13T09:38:05.609Z,15.99
2022-10-13T09:40:32.871Z,15.55
2022-10-13T09:43:01.414Z,15.30
2022-10-13T09:45:30.670Z,15.13
2022-10-13T09:48:04.585Z,15.13
2022-10-13T09:50:35.494Z,14.96
2022-10-13T09:53:25.714Z,15.02
2022-10-13T09:56:29.745Z,14.92
2022-10-13T09:59:18.194Z,14.99
2022-10-13T10:01:46.567Z,14.94
2022-10-13T10:04:18.070Z,14.89
2022-10-13T10:06:48.855Z,14.87
2022-10-13T10:09:37.242Z,14.63
2022-10-13T10:12:04.950Z,14.49
2022-10-13T10:14:37.053Z,14.71
2022-10-13T10:17:41.607Z,14.64
2022-10-13T10:20:26.548Z,14.63
2022-10-13T10:23:01.317Z,14.62
2022-10-13T10:25:52.496Z,14.63
2022-10-13T10:28:27.681Z,14.61
2022-10-13T10:31:02.965Z,14.64
2022-10-13T10:33:56.422Z,14.70
2022-10-13T10:36:28.639Z,14.76
2022-10-13T10:39:03.833Z,14.67
2022-10-13T10:41:45.583Z,14.63
2022-10-13T10:44:22.517Z,14.59
2022-10-13T10:46:49.966Z,14.60
2022-10-13T10:49:26.900Z,14.49
2022-10-13T10:51:54.073Z,14.51
2022-10-13T10:54:20.524Z,14.51
2022-10-13T10:57:00.549Z,14.61
2022-10-13T10:59:49.901Z,14.66
2022-10-13T11:02:35.505Z,14.36
2022-10-13T11:05:05.423Z,14.38
2022-10-13T11:07:33.413Z,14.30
2022-10-13T11:09:59.828Z,14.19
2022-10-13T11:12:45.033Z,14.39
2022-10-13T11:15:13.478Z,14.26
2022-10-13T11:17:41.252Z,14.10
2022-10-13T11:20:22.381Z,14.06
2022-10-13T11:22:57.723Z,14.06
2022-10-13T11:25:42.446Z,14.12
2022-10-13T11:28:21.287Z,14.21
2022-10-13T11:30:55.585Z,14.08
2022-10-13T11:33:34.862Z,14.24
2022-10-13T11:36:28.956Z,14.19
2022-10-13T11:39:20.543Z,14.25
2022-10-13T11:42:05.973Z,14.26
2022-10-13T11:44:45.782Z,14.31
2022-10-13T11:47:27.714Z,14.38
2022-10-13T11:50:08.204Z,14.50
2022-10-13T11:52:37.961Z,14.63
2022-10-13T11:58:16.481Z,14.58
2022-10-13T12:00:56.062Z,14.51
2022-10-13T12:03:40.521Z,14.74
2022-10-13T12:06:23.008Z,14.67
2022-10-13T12:08:51.953Z,14.64
2022-10-13T12:11:38.381Z,14.88
2022-10-13T12:14:07.768Z,14.97
2022-10-13T12:16:34.764Z,15.05
2022-10-13T12:19:10.146Z,15.02
2022-10-13T12:21:49.474Z,14.87
2022-10-13T12:24:16.524Z,14.74
2022-10-13T12:26:43.564Z,14.90
2022-10-13T12:29:14.729Z,15.10
2022-10-13T12:31:44.931Z,14.99
2022-10-13T12:34:21.855Z,14.93
2022-10-13T12:37:28.035Z,14.94
2022-10-13T12:39:56.941Z,14.97
2022-10-13T12:42:29.848Z,14.80
2022-10-13T12:44:57.831Z,14.67
2022-10-13T12:47:50.240Z,14.97
2022-10-13T12:50:26.132Z,15.14
2022-10-13T12:53:03.878Z,15.18
2022-10-13T12:55:33.162Z,15.21
2022-10-13T12:58:01.586Z,15.26
2022-10-13T13:00:29.998Z,15.14
2022-10-13T13:03:05.645Z,15.19
2022-10-13T13:05:50.758Z,15.11
2022-10-13T13:08:29.869Z,15.02
2022-10-13T13:11:01.510Z,14.98
2022-10-13T13:13:28.924Z,15.15
2022-10-13T13:16:13.991Z,15.21
2022-10-13T13:18:42.723Z,15.24
2022-10-13T13:21:12.021Z,15.09
2022-10-13T13:23:39.355Z,15.17
2022-10-13T13:26:14.255Z,15.20
2022-10-13T13:28:48.084Z,15.14
2022-10-13T13:31:19.643Z,15.05
2022-10-13T13:33:46.765Z,15.06
2022-10-13T13:36:24.222Z,14.89
2022-10-13T13:38:51.670Z,14.83
2022-10-13T13:41:18.531Z,14.65
2022-10-13T13:43:47.849Z,14.65
2022-10-13T13:46:21.139Z,14.80
2022-10-13T13:48:48.129Z,14.81
2022-10-13T13:51:15.565Z,14.87
2022-10-13T13:53:42.165Z,14.82
2022-10-13T13:56:17.324Z,15.05
2022-10-13T13:58:44.628Z,15.91
2022-10-13T14:01:11.726Z,16.40
2022-10-13T14:03:38.426Z,15.74
2022-10-13T14:06:05.519Z,15.49
2022-10-13T14:08:33.579Z,15.25
2022-10-13T14:11:00.252Z,15.18
2022-10-13T14:13:26.933Z,15.13
2022-10-13T14:15:57.771Z,15.09
2022-10-13T14:18:24.837Z,14.98
2022-10-13T14:20:51.430Z,14.87
2022-10-13T14:23:18.187Z,14.63
2022-10-13T14:25:44.880Z,14.69
2022-10-13T14:28:14.571Z,14.62
2022-10-13T14:30:44.429Z,14.50
2022-10-13T14:33:11.020Z,14.16
2022-10-13T14:35:37.503Z,14.24
2022-10-13T14:38:04.165Z,14.31
2022-10-13T14:40:31.158Z,14.25
2022-10-13T14:42:57.696Z,14.27
2022-10-13T14:45:24.263Z,14.34
2022-10-13T14:47:52.609Z,14.29
2022-10-13T14:50:19.113Z,14.18
2022-10-13T14:52:45.610Z,14.08
2022-10-13T14:55:12.451Z,14.09
2022-10-13T14:57:39.011Z,14.06
2022-10-13T15:00:05.855Z,13.89
2022-10-13T15:02:32.484Z,13.95
2022-10-13T15:04:58.963Z,13.89
2022-10-13T15:07:25.663Z,13.75
2022-10-13T15:10:04.318Z,13.59
2022-10-13T15:12:32.251Z,13.49
2022-10-13T15:14:58.985Z,13.36
2022-10-13T15:17:25.416Z,13.31
2022-10-13T15:19:52.131Z,13.25
2022-10-13T15:22:19.382Z,13.18
2022-10-13T15:24:46.533Z,13.18
2022-10-13T15:27:13.041Z,13.07
2022-10-13T15:29:39.577Z,13.01
2022-10-13T15:32:13.613Z,12.80
2022-10-13T15:34:40.140Z,12.69
2022-10-13T15:37:07.367Z,12.66
2022-10-13T15:39:34.155Z,12.51
2022-10-13T15:42:00.929Z,12.43
2022-10-13T15:44:28.062Z,12.42
2022-10-13T15:47:07.360Z,12.25
2022-10-13T15:49:39.393Z,12.20
2022-10-13T15:52:06.054Z,12.11
2022-10-13T15:54:33.545Z,12.18
2022-10-13T15:57:00.299Z,12.12
2022-10-13T15:59:26.832Z,12.02
2022-10-13T16:01:53.611Z,11.87
2022-10-13T16:04:20.331Z,11.76
2022-10-13T16:06:46.813Z,11.74
2022-10-13T16:09:13.497Z,11.64
2022-10-13T16:11:40.224Z,11.59
2022-10-13T16:14:06.704Z,11.55
2022-10-13T16:16:35.256Z,11.51
2022-10-13T16:19:02.098Z,11.46
2022-10-13T16:21:28.667Z,11.47
2022-10-13T16:23:55.509Z,11.48
2022-10-13T16:26:22.590Z,11.39
2022-10-13T16:28:49.310Z,11.33
2022-10-13T16:31:16.791Z,11.21
2022-10-13T16:33:45.065Z,11.16
2022-10-13T16:36:17.196Z,11.22
2022-10-13T16:38:45.038Z,11.14
2022-10-13T16:41:14.740Z,11.11
2022-10-13T16:43:42.197Z,11.10
2022-10-13T16:46:12.799Z,11.06
2022-10-13T16:48:43.219Z,11.04
2022-10-13T16:51:13.417Z,10.92
2022-10-13T16:53:40.465Z,10.89
2022-10-13T16:56:07.828Z,10.88
2022-10-13T16:58:34.736Z,10.80
2022-10-13T17:01:10.983Z,10.79
2022-10-13T17:03:38.873Z,10.76
2022-10-13T17:06:06.169Z,10.71
2022-10-13T17:08:33.085Z,10.60
2022-10-13T17:11:00.068Z,10.57
2022-10-13T17:13:26.937Z,10.62
2022-10-13T17:15:55.460Z,10.74
2022-10-13T17:18:22.286Z,10.63
2022-10-13T17:21:02.361Z,10.57
2022-10-13T17:23:29.323Z,10.52
2022-10-13T17:25:56.365Z,10.52
2022-10-13T17:28:23.243Z,10.48
2022-10-13T17:31:04.233Z,10.51
2022-10-13T17:33:34.804Z,10.49
2022-10-13T17:36:04.354Z,10.46
2022-10-13T17:38:34.062Z,10.41
2022-10-13T17:41:01.794Z,10.45
2022-10-13T17:43:29.123Z,10.39
2022-10-13T17:46:07.476Z,10.37
2022-10-13T17:48:42.850Z,10.41
2022-10-13T17:51:12.064Z,10.44
2022-10-13T17:53:39.709Z,10.38
2022-10-13T17:56:09.460Z,10.39
2022-10-13T17:58:37.513Z,10.35
2022-10-13T18:01:14.166Z,10.25
2022-10-13T18:03:54.850Z,10.12
2022-10-13T18:06:22.744Z,10.12
2022-10-13T18:08:52.673Z,10.13
2022-10-13T18:11:21.573Z,10.15
2022-10-13T18:13:49.015Z,10.04
2022-10-13T18:16:18.477Z,10.07
2022-10-13T18:18:45.900Z,10.04
2022-10-13T18:21:15.618Z,10.04
2022-10-13T18:23:43.574Z,9.99
2022-10-13T18:26:15.810Z,9.95
2022-10-13T18:28:44.305Z,9.95
2022-10-13T18:31:22.139Z,9.88
2022-10-13T18:33:48.799Z,9.89
2022-10-13T18:36:20.634Z,9.83
2022-10-13T18:38:47.797Z,9.81
2022-10-13T18:41:15.318Z,9.87
2022-10-13T18:43:41.856Z,9.83
2022-10-13T18:46:09.764Z,9.84
2022-10-13T18:48:36.693Z,9.75
2022-10-13T18:51:08.367Z,9.76
2022-10-13T18:53:36.053Z,9.77
2022-10-13T18:56:07.871Z,9.80
2022-10-13T18:58:35.434Z,9.78
2022-10-13T19:01:03.374Z,9.79
2022-10-13T19:03:35.760Z,9.79
2022-10-13T19:06:04.332Z,9.71
2022-10-13T19:08:32.526Z,9.67
2022-10-13T19:10:59.754Z,9.68
2022-10-13T19:13:27.820Z,9.70
2022-10-13T19:16:01.341Z,9.83
2022-10-13T19:18:28.115Z,9.74
2022-10-13T19:20:54.660Z,9.77
2022-10-13T19:23:22.200Z,9.78
2022-10-13T19:25:48.889Z,9.75
2022-10-13T19:28:15.417Z,9.82
2022-10-13T19:30:42.361Z,9.73
2022-10-13T19:33:10.467Z,9.70
2022-10-13T19:35:48.296Z,9.62
2022-10-13T19:38:15.709Z,9.62
2022-10-13T19:40:49.715Z,9.70
2022-10-13T19:43:19.322Z,9.72
2022-10-13T19:45:47.265Z,9.71
2022-10-13T19:48:13.979Z,9.79
2022-10-13T19:50:41.705Z,9.84
2022-10-13T19:53:09.621Z,9.75
2022-10-13T19:55:44.621Z,9.66
2022-10-13T19:58:11.129Z,9.60
2022-10-13T20:00:37.681Z,9.72
2022-10-13T20:03:05.120Z,9.72
2022-10-13T20:05:32.343Z,9.60
2022-10-13T20:07:58.783Z,9.48
2022-10-13T20:10:25.577Z,9.60
2022-10-13T20:12:52.249Z,9.63
2022-10-13T20:15:18.672Z,9.53
2022-10-13T20:17:45.099Z,9.54
2022-10-13T20:20:11.689Z,9.50
2022-10-13T20:22:39.794Z,9.44
2022-10-13T20:25:09.121Z,9.49
2022-10-13T20:27:36.086Z,9.38
2022-10-13T20:30:02.533Z,9.39
2022-10-13T20:32:29.042Z,9.45
2022-10-13T20:34:55.543Z,9.34
2022-10-13T20:37:22.339Z,9.26
2022-10-13T20:39:49.274Z,9.28
2022-10-13T20:42:15.753Z,9.27
2022-10-13T20:44:42.305Z,9.27
2022-10-13T20:47:08.753Z,9.16
2022-10-13T20:49:35.251Z,9.03
2022-10-13T20:52:01.656Z,9.01
2022-10-13T20:54:28.108Z,8.95
2022-10-13T20:56:54.639Z,8.96
2022-10-13T20:59:21.077Z,8.81
2022-10-13T21:01:47.499Z,8.78
2022-10-13T21:04:14.176Z,8.74
2022-10-13T21:06:41.320Z,8.85
2022-10-13T21:09:07.968Z,8.74
2022-10-13T21:11:35.257Z,8.78
2022-10-13T21:14:06.407Z,8.73
2022-10-13T21:16:33.638Z,8.71
2022-10-13T21:19:00.265Z,8.62
2022-10-13T21:21:32.432Z,8.58
2022-10-13T21:24:01.074Z,8.50
2022-10-13T21:26:29.322Z,8.50
2022-10-13T21:28:56.048Z,8.49
2022-10-13T21:31:23.898Z,8.46
2022-10-13T21:33:50.521Z,8.37
2022-10-13T21:36:18.137Z,8.33
2022-10-13T21:38:46.252Z,8.35
2022-10-13T21:41:13.946Z,8.37
2022-10-13T21:43:40.800Z,8.24
2022-10-13T21:46:14.080Z,8.18
2022-10-13T21:48:40.685Z,8.27
2022-10-13T21:51:23.556Z,8.35
2022-10-13T21:53:54.661Z,8.25
2022-10-13T21:56:21.733Z,8.17
2022-10-13T21:58:49.077Z,8.10
2022-10-13T22:01:19.397Z,7.98
2022-10-13T22:03:47.186Z,8.01
2022-10-13T22:06:19.202Z,8.13
2022-10-13T22:08:47.588Z,8.05
2022-10-13T22:11:14.915Z,7.95
2022-10-13T22:13:41.390Z,7.89
2022-10-13T22:16:19.644Z,7.89
2022-10-13T22:18:46.431Z,7.87
2022-10-13T22:21:16.722Z,7.93
2022-10-13T22:23:43.459Z,7.89
2022-10-13T22:26:10.531Z,7.85
2022-10-13T22:28:37.763Z,7.96
2022-10-13T22:31:13.373Z,7.91
2022-10-13T22:33:41.363Z,7.81
2022-10-13T22:36:15.672Z,7.90
2022-10-13T22:38:42.986Z,7.82
2022-10-13T22:41:09.932Z,7.88
2022-10-13T22:43:36.578Z,7.74
2022-10-13T22:46:03.845Z,7.75
2022-10-13T22:48:30.613Z,7.70
2022-10-13T22:50:57.407Z,7.71
2022-10-13T22:53:23.918Z,7.63
2022-10-13T22:55:50.419Z,7.58
2022-10-13T22:58:17.065Z,7.58
2022-10-13T23:00:43.525Z,7.57
2022-10-13T23:03:15.028Z,7.57
2022-10-13T23:05:43.326Z,7.56
2022-10-13T23:08:11.085Z,7.51
2022-10-13T23:10:37.618Z,7.44
2022-10-13T23:13:05.120Z,7.44
2022-10-13T23:15:32.415Z,7.50
2022-10-13T23:17:58.853Z,7.54
2022-10-13T23:20:25.507Z,7.47
2022-10-13T23:22:51.943Z,7.50
2022-10-13T23:25:18.389Z,7.45
2022-10-13T23:27:44.891Z,7.31
2022-10-13T23:30:12.074Z,7.35
2022-10-13T23:32:38.476Z,7.37
2022-10-13T23:35:05.290Z,7.34
2022-10-13T23:37:32.349Z,7.30
2022-10-13T23:39:58.835Z,7.35
2022-10-13T23:42:25.407Z,7.34
2022-10-13T23:44:51.843Z,7.39
2022-10-13T23:47:18.493Z,7.45
2022-10-13T23:49:45.200Z,7.52
2022-10-13T23:52:11.701Z,7.60
2022-10-13T23:54:38.196Z,7.69
2022-10-13T23:57:04.625Z,7.62
2022-10-13T23:59:34.208Z,7.69
